createdAt,value
2022-10-13T00:02:19.739Z,100583.56
2022-10-13T00:06:36.005Z,100586.03
2022-10-13T00:10:52.294Z,100577.53
2022-10-13T00:15:09.012Z,100578.66
2022-10-13T00:19:25.656Z,100584.12
2022-10-13T00:23:42.013Z,100591.78
2022-10-13T00:27:57.972Z,100590.13
2022-10-13T00:32:14.082Z,100586.03
2022-10-13T00:36:30.339Z,100585.19
2022-10-13T00:40:54.842Z,100586.81
2022-10-13T00:45:29.962Z,100587.97
2022-10-13T00:49:45.902Z,100587.97
2022-10-13T00:54:03.528Z,100584.12
2022-10-13T00:58:22.058Z,100573.72
2022-10-13T01:02:38.871Z,100570.69
2022-10-13T01:06:56.016Z,100567.94
2022-10-13T01:11:36.176Z,100570.44
2022-10-13T01:16:09.214Z,100564.06
2022-10-13T01:20:58.843Z,100561.06
2022-10-13T01:25:39.590Z,100566.56
2022-10-13T01:30:22.892Z,100570.41
2022-10-13T01:35:00.033Z,100562.69
2022-10-13T01:39:24.324Z,100568.50
2022-10-13T01:43:47.382Z,100568.22
2022-10-13T01:48:05.002Z,100555.59
2022-10-13T01:52:22.965Z,100551.22
2022-10-13T01:56:38.911Z,100553.72
2022-10-13T02:01:06.300Z,100557.53
2022-10-13T02:05:31.159Z,100555.59
2022-10-13T02:10:14.826Z,100547.91
2022-10-13T02:14:33.716Z,100554.25
2022-10-13T02:18:50.562Z,100545.19
2022-10-13T02:23:11.124Z,100544.09
2022-10-13T02:27:27.083Z,100544.09
2022-10-13T02:31:44.105Z,100545.75
2022-10-13T02:36:00.094Z,100545.19
2022-10-13T02:40:16.238Z,100541.91
2022-10-13T02:44:32.311Z,100536.97
2022-10-13T02:48:48.441Z,100538.91
2022-10-13T02:53:04.395Z,100541.63
2022-10-13T02:57:20.389Z,100541.63
2022-10-13T03:01:41.354Z,100541.09
2022-10-13T03:05:57.312Z,100536.97
2022-10-13T03:10:13.356Z,100526.84
2022-10-13T03:14:29.353Z,100529.00
2022-10-13T03:18:48.265Z,100537.22
2022-10-13T03:23:04.489Z,100537.47
2022-10-13T03:27:21.039Z,100536.94
2022-10-13T03:31:36.956Z,100535.06
2022-10-13T03:35:52.885Z,100543.56
2022-10-13T03:40:10.271Z,100530.91
2022-10-13T03:44:26.274Z,100523.75
2022-10-13T03:48:42.494Z,100526.56
2022-10-13T03:52:58.448Z,100530.69
2022-10-13T03:57:14.514Z,100520.00
2022-10-13T04:01:31.127Z,100523.28
2022-10-13T04:05:47.806Z,100513.97
2022-10-13T04:10:03.863Z,100523.44
2022-10-13T04:14:20.578Z,100529.53
2022-10-13T04:18:37.491Z,100521.03
2022-10-13T04:22:56.013Z,100518.91
2022-10-13T04:27:11.985Z,100517.53
2022-10-13T04:31:29.772Z,100520.50
2022-10-13T04:35:45.746Z,100521.31
2022-10-13T04:40:01.756Z,100527.06
2022-10-13T04:44:17.686Z,100526.56
2022-10-13T04:48:33.682Z,100521.59
2022-10-13T04:52:49.634Z,100530.03
2022-10-13T04:57:05.648Z,100526.47
2022-10-13T05:01:23.895Z,100523.75
2022-10-13T05:05:40.201Z,100531.13
2022-10-13T05:09:56.192Z,100534.41
2022-10-13T05:14:12.151Z,100534.72
2022-10-13T05:18:28.043Z,100519.91
2022-10-13T05:22:44.275Z,100528.63
2022-10-13T05:27:00.219Z,100534.09
2022-10-13T05:31:21.919Z,100539.59
2022-10-13T05:35:37.822Z,100533.31
2022-10-13T05:39:53.993Z,100538.56
2022-10-13T05:44:10.545Z,100538.97
2022-10-13T05:48:27.086Z,100538.56
2022-10-13T05:52:43.283Z,100543.44
2022-10-13T05:57:06.413Z,100559.09
2022-10-13T06:01:25.228Z,100548.22
2022-10-13T06:05:43.319Z,100558.91
2022-10-13T06:09:59.816Z,100551.69
2022-10-13T06:14:15.772Z,100556.63
2022-10-13T06:18:31.689Z,100565.13
2022-10-13T06:22:50.226Z,100553.38
2022-10-13T06:27:06.203Z,100550.69
2022-10-13T06:31:22.145Z,100555.59
2022-10-13T06:35:38.088Z,100556.72
2022-10-13T06:39:54.120Z,100566.78
2022-10-13T06:44:11.261Z,100563.25
2022-10-13T06:48:28.507Z,100557.78
2022-10-13T06:52:44.581Z,100555.87
2022-10-13T06:57:00.656Z,100570.84
2022-10-13T07:01:16.581Z,100563.00
2022-10-13T07:05:32.565Z,100566.28
2022-10-13T07:09:48.921Z,100564.09
2022-10-13T07:14:05.288Z,100569.31
2022-10-13T07:18:21.204Z,100565.75
2022-10-13T07:22:37.193Z,100568.78
2022-10-13T07:26:53.261Z,100557.81
2022-10-13T07:31:14.352Z,100572.84
2022-10-13T07:35:31.056Z,100565.84
2022-10-13T07:39:47.309Z,100556.16
2022-10-13T07:44:03.366Z,100555.59
2022-10-13T07:48:19.433Z,100556.66
2022-10-13T07:52:36.739Z,100564.38
2022-10-13T07:56:56.104Z,100552.25
2022-10-13T08:01:13.177Z,100557.25
2022-10-13T08:05:29.141Z,100549.00
2022-10-13T08:09:45.218Z,100540.12
2022-10-13T08:14:01.268Z,100536.84
2022-10-13T08:18:17.194Z,100541.31
2022-10-13T08:22:34.517Z,100540.50
2022-10-13T08:26:51.152Z,100521.38
2022-10-13T08:31:07.297Z,100538.63
2022-10-13T08:35:23.434Z,100532.59
2022-10-13T08:39:39.383Z,100511.19
2022-10-13T08:44:49.512Z,100519.44
2022-10-13T08:48:41.407Z,100511.56
2022-10-13T08:52:58.710Z,100507.41
2022-10-13T08:57:14.689Z,100508.94
2022-10-13T09:01:33.205Z,100499.59
2022-10-13T09:06:00.153Z,100501.16
2022-10-13T09:10:16.705Z,100487.69
2022-10-13T09:14:35.792Z,100495.53
2022-10-13T09:18:51.750Z,100493.22
2022-10-13T09:23:20.849Z,100490.34
2022-10-13T09:27:54.718Z,100493.00
2022-10-13T09:32:21.879Z,100489.69
2022-10-13T09:36:38.832Z,100490.38
2022-10-13T09:41:00.623Z,100489.31
2022-10-13T09:45:18.941Z,100486.50
2022-10-13T09:49:43.572Z,100472.97
2022-10-13T09:53:59.809Z,100480.72
2022-10-13T09:58:25.406Z,100467.91
2022-10-13T10:03:00.389Z,100457.22
2022-10-13T10:07:23.503Z,100445.28
2022-10-13T10:11:40.936Z,100439.12
2022-10-13T10:16:17.704Z,100437.25
2022-10-13T10:20:36.479Z,100439.06
2022-10-13T10:25:10.376Z,100431.41
2022-10-13T10:29:33.389Z,100426.19
2022-10-13T10:34:04.565Z,100427.09
2022-10-13T10:38:48.496Z,100427.28
2022-10-13T10:43:22.642Z,100421.38
2022-10-13T10:47:42.766Z,100399.91
2022-10-13T10:52:00.459Z,100406.25
2022-10-13T10:56:22.461Z,100406.09
2022-10-13T11:00:49.306Z,100379.94
2022-10-13T11:05:06.540Z,100381.88
2022-10-13T11:09:41.504Z,100375.56
2022-10-13T11:14:17.739Z,100369.91
2022-10-13T11:19:25.615Z,100361.47
2022-10-13T11:23:46.802Z,100359.25
2022-10-13T11:28:20.946Z,100349.56
2022-10-13T11:32:37.048Z,100344.38
2022-10-13T11:36:56.866Z,100341.44
2022-10-13T11:41:18.828Z,100333.16
2022-10-13T11:46:16.765Z,100337.78
2022-10-13T11:50:35.479Z,100332.13
2022-10-13T11:55:13.938Z,100326.13
2022-10-13T11:59:39.924Z,100322.78
2022-10-13T12:03:55.945Z,100324.44
2022-10-13T12:08:11.955Z,100324.94
2022-10-13T12:12:27.933Z,100321.44
2022-10-13T12:17:02.590Z,100317.38
2022-10-13T12:21:23.115Z,100311.13
2022-10-13T12:25:39.224Z,100309.81
2022-10-13T12:29:55.314Z,100304.25
2022-10-13T12:34:31.078Z,100300.38
2022-10-13T12:38:52.952Z,100301.53
2022-10-13T12:43:13.301Z,100292.03
2022-10-13T12:47:49.112Z,100295.53
2022-10-13T12:52:14.630Z,100292.56
2022-10-13T12:56:32.157Z,100292.50
2022-10-13T13:00:57.551Z,100291.50
2022-10-13T13:05:32.401Z,100280.25
2022-10-13T13:10:09.113Z,100281.91
2022-10-13T13:14:37.356Z,100282.34
2022-10-13T13:18:53.290Z,100274.75
2022-10-13T13:23:09.293Z,100276.88
2022-10-13T13:27:38.549Z,100265.19
2022-10-13T13:31:54.817Z,100266.50
2022-10-13T13:36:31.114Z,100271.25
2022-10-13T13:40:47.100Z,100265.84
2022-10-13T13:45:03.037Z,100259.44
2022-10-13T13:49:19.011Z,100252.28
2022-10-13T13:53:34.923Z,100248.94
2022-10-13T13:57:51.264Z,100237.34
2022-10-13T14:02:12.135Z,100243.69
2022-10-13T14:06:28.323Z,100243.09
2022-10-13T14:10:44.250Z,100245.09
2022-10-13T14:15:00.610Z,100238.22
2022-10-13T14:19:16.898Z,100240.63
2022-10-13T14:23:32.829Z,100236.53
2022-10-13T14:27:48.771Z,100234.72
2022-10-13T14:32:05.128Z,100237.97
2022-10-13T14:36:21.103Z,100235.09
2022-10-13T14:40:40.524Z,100239.56
2022-10-13T14:44:56.514Z,100234.38
2022-10-13T14:49:12.746Z,100235.62
2022-10-13T14:53:28.710Z,100228.06
2022-10-13T14:57:44.657Z,100224.34
2022-10-13T15:02:00.703Z,100224.09
2022-10-13T15:06:21.148Z,100224.69
2022-10-13T15:10:37.134Z,100210.47
2022-10-13T15:14:53.136Z,100217.78
2022-10-13T15:19:09.141Z,100219.94
2022-10-13T15:23:25.322Z,100226.53
2022-10-13T15:27:42.268Z,100231.19
2022-10-13T15:32:10.310Z,100234.09
2022-10-13T15:36:26.265Z,100222.88
2022-10-13T15:40:42.321Z,100227.59
2022-10-13T15:45:13.764Z,100221.56
2022-10-13T15:49:29.742Z,100227.28
2022-10-13T15:53:46.490Z,100228.41
2022-10-13T15:58:02.459Z,100222.16
2022-10-13T16:02:18.689Z,100230.19
2022-10-13T16:06:37.327Z,100227.66
2022-10-13T16:10:53.364Z,100228.62
2022-10-13T16:15:10.269Z,100229.03
2022-10-13T16:19:26.252Z,100240.66
2022-10-13T16:23:42.707Z,100235.03
2022-10-13T16:27:59.532Z,100234.75
2022-10-13T16:32:15.585Z,100241.91
2022-10-13T16:36:31.481Z,100240.91
2022-10-13T16:40:47.423Z,100248.97
2022-10-13T16:45:03.505Z,100244.78
2022-10-13T16:49:19.476Z,100250.31
2022-10-13T16:53:35.849Z,100243.16
2022-10-13T16:57:52.450Z,100246.94
2022-10-13T17:02:13.263Z,100250.00
2022-10-13T17:06:29.830Z,100246.00
2022-10-13T17:10:45.731Z,100255.56
2022-10-13T17:15:01.775Z,100248.28
2022-10-13T17:19:17.712Z,100256.66
2022-10-13T17:23:33.776Z,100250.09
2022-10-13T17:27:49.702Z,100253.38
2022-10-13T17:32:05.661Z,100247.72
2022-10-13T17:36:27.039Z,100250.53
2022-10-13T17:40:42.995Z,100249.53
2022-10-13T17:44:58.926Z,100258.94
2022-10-13T17:49:17.025Z,100251.66
2022-10-13T17:53:32.975Z,100250.41
2022-10-13T17:57:48.978Z,100254.09
2022-10-13T18:02:04.988Z,100251.34
2022-10-13T18:09:10.417Z,100247.13
2022-10-13T18:13:26.504Z,100242.69
2022-10-13T18:17:42.467Z,100248.31
2022-10-13T18:21:58.473Z,100252.22
2022-10-13T18:26:17.120Z,100243.69
2022-10-13T18:30:33.730Z,100249.00
2022-10-13T18:34:50.442Z,100236.66
2022-10-13T18:39:10.526Z,100245.66
2022-10-13T18:43:26.499Z,100234.59
2022-10-13T18:47:42.684Z,100236.16
2022-10-13T18:51:59.488Z,100240.69
2022-10-13T18:56:20.951Z,100235.66
2022-10-13T19:00:37.213Z,100244.19
2022-10-13T19:04:53.207Z,100236.97
2022-10-13T19:09:11.921Z,100238.47
2022-10-13T19:13:28.154Z,100238.81
2022-10-13T19:17:44.192Z,100236.44
2022-10-13T19:22:00.388Z,100239.25
2022-10-13T19:26:19.805Z,100239.81
2022-10-13T19:30:35.744Z,100236.91
2022-10-13T19:34:51.703Z,100241.44
2022-10-13T19:39:12.951Z,100240.47
2022-10-13T19:43:28.962Z,100241.38
2022-10-13T19:47:44.865Z,100236.31
2022-10-13T19:52:00.771Z,100247.16
2022-10-13T19:56:28.287Z,100234.09
2022-10-13T20:00:45.740Z,100243.00
2022-10-13T20:05:01.740Z,100247.16
2022-10-13T20:09:18.941Z,100250.44
2022-10-13T20:13:35.417Z,100250.94
2022-10-13T20:17:51.382Z,100248.94
2022-10-13T20:22:07.279Z,100252.59
2022-10-13T20:26:23.506Z,100248.88
2022-10-13T20:30:40.262Z,100255.25
2022-10-13T20:34:56.214Z,100243.38
2022-10-13T20:39:12.151Z,100245.66
2022-10-13T20:43:28.083Z,100248.13
2022-10-13T20:47:44.214Z,100249.28
2022-10-13T20:52:00.237Z,100249.69
2022-10-13T20:56:21.747Z,100252.03
2022-10-13T21:00:37.783Z,100250.25
2022-10-13T21:04:53.722Z,100253.22
2022-10-13T21:09:10.032Z,100259.31
2022-10-13T21:13:26.634Z,100248.84
2022-10-13T21:17:42.676Z,100248.53
2022-10-13T21:21:59.342Z,100250.56
2022-10-13T21:26:20.382Z,100243.19
2022-10-13T21:30:37.549Z,100240.78
2022-10-13T21:34:54.219Z,100233.59
2022-10-13T21:39:10.200Z,100232.53
2022-10-13T21:43:26.157Z,100236.63
2022-10-13T21:47:42.090Z,100240.19
2022-10-13T21:51:58.034Z,100233.13
2022-10-13T21:56:14.006Z,100235.28
2022-10-13T22:00:30.873Z,100228.41
2022-10-13T22:04:46.833Z,100235.81
2022-10-13T22:09:04.818Z,100233.09
2022-10-13T22:13:20.715Z,100221.03
2022-10-13T22:17:36.638Z,100215.88
2022-10-13T22:21:52.585Z,100221.25
2022-10-13T22:26:09.289Z,100212.25
2022-10-13T22:30:25.543Z,100210.72
2022-10-13T22:34:41.569Z,100206.31
2022-10-13T22:38:59.998Z,100213.97
2022-10-13T22:43:15.951Z,100201.34
2022-10-13T22:47:31.931Z,100210.69
2022-10-13T22:51:47.904Z,100210.44
2022-10-13T22:56:08.536Z,100206.03
2022-10-13T23:00:24.483Z,100211.25
2022-10-13T23:04:40.414Z,100205.50
2022-10-13T23:08:56.872Z,100206.59
2022-10-13T23:13:12.840Z,100204.69
2022-10-13T23:17:28.885Z,100200.59
2022-10-13T23:21:44.800Z,100192.66
2022-10-13T23:26:09.350Z,100195.66
2022-10-13T23:30:25.309Z,100195.31
2022-10-13T23:34:41.369Z,100201.91
2022-10-13T23:38:58.873Z,100189.09
2022-10-13T23:43:14.838Z,100190.41
2022-10-13T23:47:30.874Z,100191.03
2022-10-13T23:51:46.931Z,100195.63
2022-10-13T23:56:04.509Z,100190.72
